createdAt,value
2023-03-06T00:00:40.459Z,76.954
2023-03-06T00:01:41.056Z,77.160
2023-03-06T00:02:40.624Z,76.855
2023-03-06T00:03:41.415Z,76.715
2023-03-06T00:04:41.152Z,76.563
2023-03-06T00:05:40.756Z,76.507
2023-03-06T00:06:40.848Z,76.664
2023-03-06T00:07:40.352Z,76.855
2023-03-06T00:08:40.938Z,76.881
2023-03-06T00:09:40.450Z,76.647
2023-03-06T00:10:40.993Z,76.498
2023-03-06T00:11:40.513Z,76.622
2023-03-06T00:12:41.013Z,76.521
2023-03-06T00:13:40.553Z,76.506
2023-03-06T00:14:41.005Z,76.637
2023-03-06T00:15:40.507Z,76.691
2023-03-06T00:16:41.140Z,76.803
2023-03-06T00:17:40.569Z,76.845
2023-03-06T00:18:41.121Z,76.797
2023-03-06T00:19:40.597Z,76.733
2023-03-06T00:20:41.125Z,76.807
2023-03-06T00:21:40.730Z,76.971
2023-03-06T00:22:41.132Z,77.051
2023-03-06T00:23:40.630Z,77.198
2023-03-06T00:24:41.129Z,77.179
2023-03-06T00:25:40.705Z,77.024
2023-03-06T00:26:41.253Z,77.049
2023-03-06T00:27:41.128Z,77.001
2023-03-06T00:28:41.175Z,77.185
2023-03-06T00:29:40.692Z,77.232
2023-03-06T00:30:41.199Z,76.828
2023-03-06T00:31:40.833Z,77.099
2023-03-06T00:32:41.317Z,77.072
2023-03-06T00:33:40.895Z,77.307
2023-03-06T00:34:40.402Z,77.127
2023-03-06T00:35:41.134Z,77.148
2023-03-06T00:36:40.793Z,76.792
2023-03-06T00:37:41.263Z,77.093
2023-03-06T00:38:40.776Z,77.238
2023-03-06T00:39:40.427Z,77.164
2023-03-06T00:40:40.946Z,77.066
2023-03-06T00:41:40.553Z,77.047
2023-03-06T00:42:41.034Z,77.305
2023-03-06T00:43:40.587Z,77.314
2023-03-06T00:44:41.149Z,77.103
2023-03-06T00:45:40.752Z,77.078
2023-03-06T00:46:40.476Z,76.975
2023-03-06T00:47:41.031Z,76.963
2023-03-06T00:48:40.638Z,77.053
2023-03-06T00:49:41.132Z,76.954
2023-03-06T00:50:40.636Z,77.009
2023-03-06T00:51:41.105Z,77.471
2023-03-06T00:52:40.644Z,77.404
2023-03-06T00:53:41.117Z,77.354
2023-03-06T00:54:40.617Z,77.291
2023-03-06T00:55:41.116Z,77.312
2023-03-06T00:56:40.689Z,77.051
2023-03-06T00:57:41.169Z,77.467
2023-03-06T00:58:40.756Z,77.366
2023-03-06T00:59:41.280Z,76.927
2023-03-06T01:00:40.990Z,76.921
2023-03-06T01:01:40.616Z,76.963
2023-03-06T01:02:40.385Z,76.755
2023-03-06T01:03:40.886Z,76.923
2023-03-06T01:04:40.645Z,77.028
2023-03-06T01:05:41.217Z,77.177
2023-03-06T01:06:40.752Z,77.042
2023-03-06T01:07:41.291Z,77.385
2023-03-06T01:08:40.901Z,77.293
2023-03-06T01:09:40.422Z,77.160
2023-03-06T01:10:41.045Z,77.165
2023-03-06T01:11:40.600Z,77.480
2023-03-06T01:12:42.811Z,77.419
2023-03-06T01:13:40.376Z,77.484
2023-03-06T01:14:41.003Z,77.345
2023-03-06T01:15:40.612Z,77.242
2023-03-06T01:16:41.539Z,77.377
2023-03-06T01:17:41.080Z,77.392
2023-03-06T01:18:40.763Z,77.608
2023-03-06T01:19:41.288Z,77.574
2023-03-06T01:20:40.855Z,77.373
2023-03-06T01:21:40.447Z,77.391
2023-03-06T01:22:41.235Z,77.732
2023-03-06T01:23:40.770Z,77.604
2023-03-06T01:24:40.250Z,77.688
2023-03-06T01:25:40.750Z,77.745
2023-03-06T01:26:41.248Z,77.713
2023-03-06T01:27:40.777Z,77.837
2023-03-06T01:28:40.313Z,77.904
2023-03-06T01:29:40.818Z,77.812
2023-03-06T01:30:40.337Z,77.665
2023-03-06T01:31:40.900Z,77.751
2023-03-06T01:32:40.854Z,77.783
2023-03-06T01:33:40.428Z,77.865
2023-03-06T01:34:40.884Z,77.875
2023-03-06T01:35:40.533Z,78.007
2023-03-06T01:36:41.125Z,77.984
2023-03-06T01:37:40.603Z,77.644
2023-03-06T01:38:41.083Z,77.692
2023-03-06T01:39:40.604Z,77.684
2023-03-06T01:40:41.134Z,77.602
2023-03-06T01:41:40.771Z,77.736
2023-03-06T01:42:40.313Z,77.722
2023-03-06T01:43:40.940Z,77.682
2023-03-06T01:44:40.452Z,77.627
2023-03-06T01:45:41.056Z,77.619
2023-03-06T01:46:40.695Z,77.646
2023-03-06T01:47:41.272Z,77.705
2023-03-06T01:48:40.832Z,77.843
2023-03-06T01:49:40.332Z,77.822
2023-03-06T01:50:40.849Z,77.711
2023-03-06T01:51:40.416Z,77.841
2023-03-06T01:52:40.908Z,77.421
2023-03-06T01:53:40.373Z,77.556
2023-03-06T01:54:40.817Z,77.806
2023-03-06T01:55:40.339Z,77.774
2023-03-06T01:56:40.827Z,77.679
2023-03-06T01:57:40.436Z,77.640
2023-03-06T01:58:41.143Z,77.722
2023-03-06T01:59:40.697Z,77.722
2023-03-06T02:00:41.186Z,77.556
2023-03-06T02:01:40.861Z,77.602
2023-03-06T02:02:40.675Z,77.743
2023-03-06T02:03:41.177Z,77.705
2023-03-06T02:04:40.732Z,77.623
2023-03-06T02:05:41.282Z,77.656
2023-03-06T02:06:40.936Z,77.692
2023-03-06T02:07:40.467Z,77.629
2023-03-06T02:08:40.925Z,77.528
2023-03-06T02:09:40.572Z,77.511
2023-03-06T02:10:41.124Z,77.516
2023-03-06T02:11:40.819Z,77.631
2023-03-06T02:12:40.589Z,77.816
2023-03-06T02:13:41.152Z,77.583
2023-03-06T02:14:40.720Z,77.780
2023-03-06T02:15:41.229Z,77.621
2023-03-06T02:16:40.823Z,77.682
2023-03-06T02:17:40.520Z,77.808
2023-03-06T02:18:41.019Z,77.642
2023-03-06T02:19:40.501Z,77.679
2023-03-06T02:20:41.125Z,77.890
2023-03-06T02:21:40.821Z,77.787
2023-03-06T02:22:40.446Z,77.846
2023-03-06T02:23:40.913Z,77.854
2023-03-06T02:24:40.750Z,77.783
2023-03-06T02:25:40.393Z,77.677
2023-03-06T02:26:40.967Z,77.705
2023-03-06T02:27:40.533Z,78.005
2023-03-06T02:28:41.185Z,77.749
2023-03-06T02:29:40.649Z,77.673
2023-03-06T02:30:41.174Z,77.865
2023-03-06T02:31:41.105Z,77.762
2023-03-06T02:32:40.788Z,77.694
2023-03-06T02:33:40.481Z,77.732
2023-03-06T02:34:41.023Z,77.848
2023-03-06T02:35:40.934Z,78.064
2023-03-06T02:36:40.640Z,77.907
2023-03-06T02:37:41.139Z,77.936
2023-03-06T02:38:40.730Z,78.043
2023-03-06T02:39:40.356Z,77.846
2023-03-06T02:40:41.040Z,78.104
2023-03-06T02:41:40.663Z,78.024
2023-03-06T02:42:41.204Z,78.129
2023-03-06T02:43:41.029Z,77.968
2023-03-06T02:44:40.603Z,78.045
2023-03-06T02:45:41.309Z,78.155
2023-03-06T02:46:41.005Z,78.087
2023-03-06T02:47:40.541Z,78.020
2023-03-06T02:48:41.079Z,77.757
2023-03-06T02:49:40.633Z,78.165
2023-03-06T02:50:40.313Z,78.117
2023-03-06T02:51:40.861Z,78.154
2023-03-06T02:52:40.439Z,78.205
2023-03-06T02:53:41.069Z,78.241
2023-03-06T02:54:40.633Z,78.134
2023-03-06T02:55:40.346Z,78.007
2023-03-06T02:56:40.869Z,78.085
2023-03-06T02:57:40.409Z,78.186
2023-03-06T02:58:40.988Z,78.228
2023-03-06T02:59:40.584Z,78.329
2023-03-06T03:00:41.940Z,78.358
2023-03-06T03:01:40.621Z,78.348
2023-03-06T03:02:40.261Z,78.220
2023-03-06T03:03:41.031Z,78.174
2023-03-06T03:04:40.809Z,78.237
2023-03-06T03:05:40.636Z,78.258
2023-03-06T03:06:41.524Z,78.388
2023-03-06T03:07:41.068Z,78.386
2023-03-06T03:08:40.725Z,78.594
2023-03-06T03:09:40.316Z,78.525
2023-03-06T03:10:40.912Z,78.747
2023-03-06T03:11:40.888Z,78.945
2023-03-06T03:12:40.551Z,78.966
2023-03-06T03:13:41.084Z,78.920
2023-03-06T03:14:40.576Z,78.834
2023-03-06T03:15:41.241Z,78.770
2023-03-06T03:16:41.116Z,78.668
2023-03-06T03:17:40.736Z,78.510
2023-03-06T03:18:41.259Z,78.604
2023-03-06T03:19:40.814Z,78.636
2023-03-06T03:20:40.433Z,78.947
2023-03-06T03:21:40.998Z,78.937
2023-03-06T03:22:40.576Z,79.094
2023-03-06T03:23:40.334Z,79.004
2023-03-06T03:24:41.076Z,79.016
2023-03-06T03:25:40.796Z,79.327
2023-03-06T03:26:41.307Z,79.000
2023-03-06T03:27:40.980Z,79.163
2023-03-06T03:28:40.429Z,79.430
2023-03-06T03:29:40.926Z,79.260
2023-03-06T03:30:40.448Z,79.157
2023-03-06T03:31:41.141Z,79.340
2023-03-06T03:32:40.743Z,79.056
2023-03-06T03:33:41.251Z,79.227
2023-03-06T03:34:40.779Z,79.035
2023-03-06T03:35:41.377Z,79.174
2023-03-06T03:36:41.000Z,79.237
2023-03-06T03:37:40.511Z,79.117
2023-03-06T03:38:41.079Z,79.121
2023-03-06T03:39:40.576Z,79.338
2023-03-06T03:40:41.137Z,79.174
2023-03-06T03:41:40.848Z,79.241
2023-03-06T03:42:40.799Z,79.292
2023-03-06T03:43:40.394Z,79.224
2023-03-06T03:44:40.910Z,79.346
2023-03-06T03:45:40.400Z,79.681
2023-03-06T03:46:41.232Z,79.595
2023-03-06T03:47:40.843Z,79.603
2023-03-06T03:48:40.377Z,79.414
2023-03-06T03:49:40.932Z,79.710
2023-03-06T03:50:40.469Z,79.626
2023-03-06T03:51:40.916Z,79.216
2023-03-06T03:52:40.377Z,79.256
2023-03-06T03:53:40.936Z,79.159
2023-03-06T03:54:40.448Z,79.567
2023-03-06T03:55:40.921Z,79.531
2023-03-06T03:56:40.392Z,79.601
2023-03-06T03:57:41.009Z,79.716
2023-03-06T03:58:40.541Z,79.649
2023-03-06T03:59:41.168Z,79.645
2023-03-06T04:00:40.923Z,79.527
2023-03-06T04:01:41.481Z,79.851
2023-03-06T04:02:41.292Z,79.508
2023-03-06T04:03:40.880Z,79.342
2023-03-06T04:04:40.626Z,79.807
2023-03-06T04:05:40.284Z,79.969
2023-03-06T04:06:40.909Z,79.807
2023-03-06T04:07:40.442Z,79.813
2023-03-06T04:08:40.954Z,79.943
2023-03-06T04:09:40.548Z,79.916
2023-03-06T04:10:41.066Z,80.007
2023-03-06T04:11:40.576Z,79.744
2023-03-06T04:12:41.148Z,79.657
2023-03-06T04:13:40.702Z,79.641
2023-03-06T04:14:40.336Z,79.811
2023-03-06T04:15:40.871Z,79.763
2023-03-06T04:16:45.697Z,79.996
2023-03-06T04:17:43.049Z,80.122
2023-03-06T04:18:40.730Z,79.956
2023-03-06T04:19:41.204Z,79.912
2023-03-06T04:20:40.922Z,79.916
2023-03-06T04:21:40.646Z,80.158
2023-03-06T04:22:41.274Z,80.192
2023-03-06T04:23:40.833Z,80.109
2023-03-06T04:24:40.462Z,80.500
2023-03-06T04:25:40.972Z,80.166
2023-03-06T04:26:40.525Z,80.202
2023-03-06T04:27:41.188Z,80.198
2023-03-06T04:28:40.737Z,80.095
2023-03-06T04:29:41.284Z,80.273
2023-03-06T04:30:40.910Z,80.145
2023-03-06T04:31:40.804Z,80.295
2023-03-06T04:32:41.125Z,80.345
2023-03-06T04:33:40.652Z,80.357
2023-03-06T04:34:41.119Z,80.469
2023-03-06T04:35:40.841Z,80.507
2023-03-06T04:36:40.539Z,80.177
2023-03-06T04:37:41.020Z,80.351
2023-03-06T04:38:40.747Z,80.471
2023-03-06T04:39:40.448Z,80.439
2023-03-06T04:40:42.275Z,80.440
2023-03-06T04:41:40.831Z,80.564
2023-03-06T04:42:40.721Z,80.501
2023-03-06T04:43:41.201Z,80.728
2023-03-06T04:44:40.771Z,80.360
2023-03-06T04:45:41.430Z,80.637
2023-03-06T04:46:41.252Z,81.015
2023-03-06T04:47:40.924Z,80.713
2023-03-06T04:48:40.524Z,80.772
2023-03-06T04:49:41.020Z,80.618
2023-03-06T04:50:40.555Z,80.570
2023-03-06T04:51:41.206Z,80.797
2023-03-06T04:52:40.862Z,80.830
2023-03-06T04:53:40.367Z,80.818
2023-03-06T04:54:40.913Z,80.530
2023-03-06T04:55:40.425Z,80.648
2023-03-06T04:56:40.949Z,80.778
2023-03-06T04:57:40.543Z,80.994
2023-03-06T04:58:41.160Z,81.140
2023-03-06T04:59:41.053Z,81.276
2023-03-06T05:00:40.641Z,81.348
2023-03-06T05:01:40.404Z,81.272
2023-03-06T05:02:41.292Z,81.058
2023-03-06T05:03:40.844Z,80.965
2023-03-06T05:04:40.440Z,81.034
2023-03-06T05:05:40.955Z,81.104
2023-03-06T05:06:40.580Z,81.259
2023-03-06T05:07:41.612Z,81.249
2023-03-06T05:08:41.274Z,81.064
2023-03-06T05:09:40.980Z,81.142
2023-03-06T05:10:40.455Z,80.976
2023-03-06T05:11:40.982Z,81.198
2023-03-06T05:12:40.511Z,81.190
2023-03-06T05:13:40.997Z,81.221
2023-03-06T05:14:40.540Z,81.076
2023-03-06T05:15:41.028Z,81.295
2023-03-06T05:16:40.788Z,81.272
2023-03-06T05:17:40.442Z,81.203
2023-03-06T05:18:40.936Z,81.171
2023-03-06T05:19:40.702Z,81.205
2023-03-06T05:20:41.233Z,81.251
2023-03-06T05:21:40.845Z,81.135
2023-03-06T05:22:40.363Z,81.139
2023-03-06T05:23:40.787Z,81.198
2023-03-06T05:24:40.394Z,81.575
2023-03-06T05:25:41.043Z,81.516
2023-03-06T05:26:40.737Z,81.234
2023-03-06T05:27:41.505Z,81.301
2023-03-06T05:28:40.975Z,81.383
2023-03-06T05:29:40.568Z,81.545
2023-03-06T05:30:41.107Z,81.259
2023-03-06T05:31:40.450Z,81.524
2023-03-06T05:32:41.577Z,81.343
2023-03-06T05:33:41.180Z,81.482
2023-03-06T05:34:40.756Z,81.507
2023-03-06T05:35:41.416Z,81.501
2023-03-06T05:36:41.383Z,81.573
2023-03-06T05:37:41.353Z,81.591
2023-03-06T05:38:41.152Z,81.472
2023-03-06T05:39:40.721Z,81.827
2023-03-06T05:40:41.308Z,81.713
2023-03-06T05:41:40.907Z,82.401
2023-03-06T05:42:40.526Z,82.001
2023-03-06T05:43:41.052Z,82.087
2023-03-06T05:44:40.683Z,82.821
2023-03-06T05:45:41.276Z,82.203
2023-03-06T05:46:41.073Z,81.959
2023-03-06T05:47:40.545Z,81.945
2023-03-06T05:48:41.040Z,81.673
2023-03-06T05:49:40.873Z,81.564
2023-03-06T05:50:40.315Z,81.928
2023-03-06T05:51:40.781Z,81.917
2023-03-06T05:52:41.284Z,81.882
2023-03-06T05:53:41.185Z,81.852
2023-03-06T05:54:40.659Z,82.329
2023-03-06T05:55:41.408Z,81.976
2023-03-06T05:56:43.633Z,81.884
2023-03-06T05:57:41.222Z,81.970
2023-03-06T05:58:40.823Z,81.831
2023-03-06T05:59:40.323Z,81.793
2023-03-06T06:00:40.845Z,81.671
2023-03-06T06:01:40.461Z,81.505
2023-03-06T06:02:41.443Z,81.486
2023-03-06T06:03:41.186Z,81.415
2023-03-06T06:04:40.692Z,81.524
2023-03-06T06:05:40.380Z,81.463
2023-03-06T06:06:40.967Z,81.510
2023-03-06T06:07:40.553Z,81.280
2023-03-06T06:08:41.214Z,81.627
2023-03-06T06:09:40.712Z,81.509
2023-03-06T06:10:41.177Z,81.482
2023-03-06T06:11:40.726Z,81.522
2023-03-06T06:12:41.208Z,81.594
2023-03-06T06:13:40.720Z,81.516
2023-03-06T06:14:40.317Z,81.524
2023-03-06T06:15:40.938Z,81.476
2023-03-06T06:16:40.656Z,81.350
2023-03-06T06:17:41.185Z,81.512
2023-03-06T06:18:42.938Z,82.867
2023-03-06T06:19:40.669Z,82.018
2023-03-06T06:20:41.252Z,81.812
2023-03-06T06:21:41.292Z,81.919
2023-03-06T06:22:40.820Z,82.195
2023-03-06T06:23:40.515Z,81.913
2023-03-06T06:24:41.148Z,81.762
2023-03-06T06:25:40.701Z,81.625
2023-03-06T06:26:41.201Z,81.400
2023-03-06T06:27:40.775Z,81.304
2023-03-06T06:28:40.408Z,81.095
2023-03-06T06:29:40.507Z,81.137
2023-03-06T06:30:41.055Z,81.057
2023-03-06T06:31:40.747Z,81.131
2023-03-06T06:32:41.377Z,80.860
2023-03-06T06:33:40.868Z,80.910
2023-03-06T06:34:40.423Z,80.744
2023-03-06T06:35:41.068Z,80.791
2023-03-06T06:36:40.733Z,80.831
2023-03-06T06:37:41.166Z,80.751
2023-03-06T06:38:40.730Z,80.822
2023-03-06T06:39:41.423Z,80.742
2023-03-06T06:40:40.962Z,80.542
2023-03-06T06:42:50.150Z,80.477
2023-03-06T06:43:44.690Z,80.454
2023-03-06T06:44:44.391Z,80.685
2023-03-06T06:45:44.996Z,80.612
2023-03-06T06:47:49.352Z,80.465
2023-03-06T06:48:49.021Z,81.026
2023-03-06T06:49:48.793Z,80.070
2023-03-06T06:50:48.301Z,80.124
2023-03-06T06:51:48.989Z,79.988
2023-03-06T06:52:48.627Z,80.145
2023-03-06T06:53:49.116Z,80.017
2023-03-06T06:54:48.702Z,80.009
2023-03-06T06:55:49.205Z,79.996
2023-03-06T06:56:48.720Z,79.786
2023-03-06T06:57:49.183Z,79.740
2023-03-06T06:58:48.743Z,79.853
2023-03-06T07:00:49.360Z,79.924
2023-03-06T07:01:49.231Z,79.882
2023-03-06T07:02:48.782Z,79.744
2023-03-06T07:03:48.324Z,79.668
2023-03-06T07:05:03.411Z,79.777
2023-03-06T07:06:48.667Z,79.714
2023-03-06T07:07:49.215Z,79.739
2023-03-06T07:08:48.774Z,79.565
2023-03-06T07:09:48.312Z,79.622
2023-03-06T07:10:48.923Z,79.933
2023-03-06T07:11:48.521Z,79.935
2023-03-06T07:12:49.067Z,79.857
2023-03-06T07:13:48.589Z,79.803
2023-03-06T07:14:49.169Z,79.723
2023-03-06T07:15:48.854Z,79.872
2023-03-06T07:16:48.448Z,79.441
2023-03-06T07:17:51.608Z,79.504
2023-03-06T07:18:49.321Z,79.559
2023-03-06T07:19:48.909Z,79.687
2023-03-06T07:20:48.433Z,79.649
2023-03-06T07:21:49.002Z,79.679
2023-03-06T07:22:53.796Z,79.708
2023-03-06T07:23:48.677Z,79.632
2023-03-06T07:24:49.362Z,79.504
2023-03-06T07:25:48.884Z,79.410
2023-03-06T07:26:48.355Z,79.828
2023-03-06T07:27:54.338Z,79.807
2023-03-06T07:28:54.773Z,80.059
2023-03-06T07:29:49.280Z,80.110
2023-03-06T07:30:48.974Z,80.351
2023-03-06T07:31:48.543Z,80.032
2023-03-06T07:32:49.276Z,80.347
2023-03-06T07:33:48.878Z,79.952
2023-03-06T07:34:49.113Z,79.304
2023-03-06T07:36:52.067Z,79.199
2023-03-06T07:37:51.638Z,79.142
2023-03-06T07:38:52.217Z,78.913
2023-03-06T07:39:51.806Z,78.876
2023-03-06T07:40:51.350Z,78.905
2023-03-06T07:41:51.987Z,78.733
2023-03-06T07:42:51.501Z,78.545
2023-03-06T07:44:51.568Z,78.375
2023-03-06T07:45:52.137Z,78.270
2023-03-06T07:46:52.076Z,78.266
2023-03-06T07:47:51.754Z,78.211
2023-03-06T07:48:51.789Z,77.762
2023-03-06T07:49:51.347Z,77.890
2023-03-06T07:50:51.989Z,78.154
2023-03-06T07:51:51.482Z,77.806
2023-03-06T07:52:51.993Z,78.335
2023-03-06T07:53:51.427Z,78.644
2023-03-06T07:54:51.958Z,78.451
2023-03-06T07:55:51.592Z,77.814
2023-03-06T07:56:52.015Z,78.150
2023-03-06T07:57:51.625Z,77.940
2023-03-06T07:58:52.251Z,76.979
2023-03-06T07:59:51.852Z,76.942
2023-03-06T08:00:51.533Z,76.845
2023-03-06T08:01:52.089Z,76.927
2023-03-06T08:02:51.696Z,77.160
2023-03-06T08:03:51.526Z,77.028
2023-03-06T08:04:52.184Z,76.681
2023-03-06T08:05:51.772Z,76.599
2023-03-06T08:06:52.220Z,76.300
2023-03-06T08:07:51.755Z,76.048
2023-03-06T08:08:51.296Z,75.722
2023-03-06T08:09:51.784Z,75.382
2023-03-06T08:10:51.389Z,75.323
2023-03-06T08:11:52.001Z,75.022
2023-03-06T08:12:51.622Z,74.911
2023-03-06T08:13:52.172Z,74.816
2023-03-06T08:14:51.721Z,74.831
2023-03-06T08:15:52.273Z,75.298
2023-03-06T08:16:52.375Z,75.218
2023-03-06T08:17:51.976Z,75.462
2023-03-06T08:18:51.557Z,74.949
2023-03-06T08:19:52.089Z,74.802
2023-03-06T08:20:51.661Z,73.944
2023-03-06T08:21:51.373Z,74.011
2023-03-06T08:22:51.924Z,74.238
2023-03-06T08:23:51.508Z,73.812
2023-03-06T08:24:51.733Z,72.714
2023-03-06T08:25:51.463Z,72.738
2023-03-06T08:26:52.023Z,73.355
2023-03-06T08:27:51.533Z,72.944
2023-03-06T08:28:51.671Z,72.536
2023-03-06T08:29:52.203Z,72.290
2023-03-06T08:30:51.724Z,71.842
2023-03-06T08:31:52.559Z,71.672
2023-03-06T08:32:51.391Z,72.038
2023-03-06T08:33:51.912Z,71.958
2023-03-06T08:34:51.528Z,71.899
2023-03-06T08:35:52.368Z,71.918
2023-03-06T08:36:51.985Z,71.541
2023-03-06T08:37:51.592Z,71.472
2023-03-06T08:38:52.110Z,71.449
2023-03-06T08:39:51.643Z,71.575
2023-03-06T08:40:51.402Z,71.497
2023-03-06T08:41:51.934Z,71.596
2023-03-06T08:42:51.503Z,71.873
2023-03-06T08:43:52.017Z,71.693
2023-03-06T08:44:51.480Z,71.241
2023-03-06T08:45:52.280Z,70.635
2023-03-06T08:46:51.873Z,70.934
2023-03-06T08:47:51.397Z,70.543
2023-03-06T08:48:51.970Z,70.377
2023-03-06T08:49:51.562Z,70.591
2023-03-06T08:50:52.144Z,70.879
2023-03-06T08:51:51.674Z,70.392
2023-03-06T08:52:52.241Z,70.457
2023-03-06T08:53:56.712Z,70.524
2023-03-06T08:54:51.497Z,70.125
2023-03-06T08:55:52.020Z,70.282
2023-03-06T08:56:51.593Z,70.394
2023-03-06T08:57:52.144Z,70.854
2023-03-06T08:58:51.692Z,71.007
2023-03-06T08:59:51.283Z,70.398
2023-03-06T09:00:52.166Z,71.457
2023-03-06T09:01:51.860Z,71.331
2023-03-06T09:02:51.775Z,71.527
2023-03-06T09:03:52.292Z,71.327
2023-03-06T09:04:51.932Z,71.171
2023-03-06T09:05:51.506Z,71.346
2023-03-06T09:06:53.516Z,71.340
2023-03-06T09:07:52.253Z,71.306
2023-03-06T09:08:51.803Z,71.379
2023-03-06T09:09:51.402Z,71.373
2023-03-06T09:10:51.983Z,71.003
2023-03-06T09:11:51.608Z,71.390
2023-03-06T09:12:57.229Z,71.291
2023-03-06T09:13:51.768Z,71.321
2023-03-06T09:14:51.453Z,70.873
2023-03-06T09:15:51.981Z,71.081
2023-03-06T09:16:51.800Z,71.075
2023-03-06T09:17:51.666Z,70.982
2023-03-06T09:18:52.232Z,71.146
2023-03-06T09:19:51.850Z,71.462
2023-03-06T09:20:51.411Z,72.017
2023-03-06T09:21:51.892Z,72.267
2023-03-06T09:22:51.496Z,72.481
2023-03-06T09:23:52.064Z,72.450
2023-03-06T09:24:51.730Z,72.618
2023-03-06T09:25:52.276Z,72.775
2023-03-06T09:26:56.767Z,72.897
2023-03-06T09:28:10.333Z,72.677
2023-03-06T09:28:51.759Z,72.447
2023-03-06T09:29:51.333Z,72.218
2023-03-06T09:30:52.025Z,72.470
2023-03-06T09:31:51.899Z,72.880
2023-03-06T09:32:51.648Z,72.834
2023-03-06T09:33:52.296Z,73.046
2023-03-06T09:34:51.888Z,73.574
2023-03-06T09:35:51.512Z,73.610
2023-03-06T09:36:59.007Z,73.702
2023-03-06T09:37:51.532Z,74.203
2023-03-06T09:38:52.097Z,73.809
2023-03-06T09:39:51.773Z,73.818
2023-03-06T09:40:51.307Z,73.496
2023-03-06T09:41:52.036Z,73.517
2023-03-06T09:42:51.562Z,73.297
2023-03-06T09:43:52.170Z,73.582
2023-03-06T09:44:51.811Z,73.278
2023-03-06T09:45:51.369Z,73.191
2023-03-06T09:46:51.333Z,73.213
2023-03-06T09:47:51.959Z,73.202
2023-03-06T09:48:51.445Z,72.735
2023-03-06T09:49:52.056Z,72.521
2023-03-06T09:50:51.577Z,72.574
2023-03-06T09:51:52.172Z,72.721
2023-03-06T09:52:51.767Z,73.191
2023-03-06T09:53:51.325Z,73.294
2023-03-06T09:54:51.920Z,73.452
2023-03-06T09:55:51.483Z,73.822
2023-03-06T09:56:52.144Z,73.730
2023-03-06T09:57:52.944Z,73.343
2023-03-06T09:58:51.860Z,72.893
2023-03-06T09:59:51.411Z,73.328
2023-03-06T10:00:52.025Z,73.168
2023-03-06T10:01:51.650Z,73.246
2023-03-06T10:02:51.725Z,73.789
2023-03-06T10:03:51.692Z,73.942
2023-03-06T10:04:51.552Z,74.264
2023-03-06T10:05:51.305Z,74.205
2023-03-06T10:06:51.856Z,74.663
2023-03-06T10:07:51.376Z,74.474
2023-03-06T10:08:51.869Z,74.154
2023-03-06T10:09:51.425Z,74.417
2023-03-06T10:10:52.029Z,74.768
2023-03-06T10:11:51.570Z,74.978
2023-03-06T10:12:52.098Z,74.903
2023-03-06T10:13:51.681Z,75.153
2023-03-06T10:14:52.217Z,75.519
2023-03-06T10:15:51.977Z,74.835
2023-03-06T10:16:51.696Z,75.294
2023-03-06T10:17:52.228Z,75.283
2023-03-06T10:18:51.785Z,75.600
2023-03-06T10:19:52.364Z,75.827
2023-03-06T10:20:52.020Z,75.538
2023-03-06T10:23:00.966Z,75.598
2023-03-06T10:23:51.785Z,75.300
2023-03-06T10:24:51.375Z,75.106
2023-03-06T10:25:51.967Z,75.756
2023-03-06T10:26:51.954Z,74.755
2023-03-06T10:27:51.684Z,74.531
2023-03-06T10:28:54.737Z,74.627
2023-03-06T10:30:02.504Z,74.829
2023-03-06T10:31:51.589Z,74.537
2023-03-06T10:32:57.156Z,73.923
2023-03-06T10:33:52.118Z,74.179
2023-03-06T10:34:51.749Z,73.852
2023-03-06T10:35:52.529Z,73.776
2023-03-06T10:36:52.125Z,73.793
2023-03-06T10:37:52.025Z,74.163
2023-03-06T10:38:51.842Z,74.154
2023-03-06T10:39:51.373Z,73.828
2023-03-06T10:40:52.085Z,73.402
2023-03-06T10:43:09.487Z,72.897
2023-03-06T10:43:55.301Z,72.939
2023-03-06T10:44:51.848Z,73.143
2023-03-06T10:45:56.357Z,73.059
2023-03-06T10:47:51.678Z,73.196
2023-03-06T10:48:51.376Z,73.395
2023-03-06T10:49:51.964Z,73.387
2023-03-06T10:50:51.726Z,73.015
2023-03-06T10:51:52.216Z,73.334
2023-03-06T10:52:51.707Z,73.124
2023-03-06T10:53:52.260Z,73.028
2023-03-06T10:54:51.803Z,73.461
2023-03-06T10:55:51.513Z,73.213
2023-03-06T10:56:52.192Z,73.036
2023-03-06T10:57:51.747Z,73.150
2023-03-06T10:58:51.340Z,72.897
2023-03-06T10:59:52.015Z,73.185
2023-03-06T11:00:51.637Z,73.139
2023-03-06T11:01:52.450Z,72.513
2023-03-06T11:02:52.009Z,72.500
2023-03-06T11:03:51.598Z,72.319
2023-03-06T11:04:52.314Z,72.399
2023-03-06T11:05:51.953Z,72.454
2023-03-06T11:06:51.292Z,72.000
2023-03-06T11:07:51.969Z,71.871
2023-03-06T11:08:51.693Z,71.695
2023-03-06T11:09:51.305Z,71.472
2023-03-06T11:10:51.986Z,71.239
2023-03-06T11:11:56.614Z,71.871
2023-03-06T11:12:52.195Z,71.501
2023-03-06T11:13:51.772Z,71.394
2023-03-06T11:14:51.358Z,71.039
2023-03-06T11:15:51.966Z,70.431
2023-03-06T11:16:51.852Z,70.005
2023-03-06T11:17:51.448Z,69.916
2023-03-06T11:18:51.965Z,70.287
2023-03-06T11:19:51.565Z,70.329
2023-03-06T11:20:57.012Z,69.824
2023-03-06T11:21:51.604Z,69.603
2023-03-06T11:22:52.595Z,69.658
2023-03-06T11:23:52.147Z,69.708
2023-03-06T11:24:51.671Z,69.193
2023-03-06T11:25:52.233Z,68.899
2023-03-06T11:26:52.918Z,69.673
2023-03-06T11:27:51.408Z,69.507
2023-03-06T11:28:51.997Z,70.078
2023-03-06T11:29:54.553Z,69.540
2023-03-06T11:30:52.082Z,69.465
2023-03-06T11:31:51.721Z,69.015
2023-03-06T11:32:51.341Z,68.716
2023-03-06T11:33:51.849Z,68.796
2023-03-06T11:34:52.452Z,68.540
2023-03-06T11:35:52.094Z,68.668
2023-03-06T11:36:51.761Z,68.474
2023-03-06T11:37:51.358Z,68.155
2023-03-06T11:38:51.877Z,66.923
2023-03-06T11:39:51.617Z,67.510
2023-03-06T11:40:52.231Z,66.517
2023-03-06T11:41:51.789Z,65.904
2023-03-06T11:42:51.296Z,66.290
2023-03-06T11:43:51.832Z,66.440
2023-03-06T11:44:51.376Z,67.100
2023-03-06T11:45:52.155Z,67.428
2023-03-06T11:47:51.420Z,68.144
2023-03-06T11:48:52.015Z,67.276
2023-03-06T11:49:51.512Z,66.372
2023-03-06T11:50:52.216Z,65.656
2023-03-06T11:51:51.941Z,65.561
2023-03-06T11:52:51.568Z,64.932
2023-03-06T11:53:52.192Z,64.731
2023-03-06T11:54:51.787Z,63.430
2023-03-06T11:55:51.305Z,64.113
2023-03-06T11:56:52.059Z,64.735
2023-03-06T11:57:51.805Z,64.121
2023-03-06T11:58:51.530Z,63.383
2023-03-06T11:59:52.149Z,63.968
2023-03-06T12:00:52.086Z,64.041
2023-03-06T12:01:51.782Z,64.043
2023-03-06T12:02:51.478Z,64.092
2023-03-06T12:03:52.145Z,63.686
2023-03-06T12:04:51.725Z,63.381
2023-03-06T12:05:51.538Z,64.804
2023-03-06T12:06:52.158Z,65.052
2023-03-06T12:07:51.857Z,65.078
2023-03-06T12:08:51.374Z,64.718
2023-03-06T12:10:53.804Z,66.154
2023-03-06T12:11:52.747Z,66.547
2023-03-06T12:12:52.449Z,66.219
2023-03-06T12:14:51.500Z,65.681
2023-03-06T12:15:52.074Z,65.502
2023-03-06T12:16:51.922Z,66.204
2023-03-06T12:17:51.598Z,66.620
2023-03-06T12:18:52.224Z,66.372
2023-03-06T12:19:51.748Z,65.555
2023-03-06T12:20:51.384Z,65.422
2023-03-06T12:21:52.189Z,63.949
2023-03-06T12:23:06.941Z,63.383
2023-03-06T12:23:52.294Z,63.574
2023-03-06T12:25:51.461Z,64.129
2023-03-06T12:26:52.010Z,63.669
2023-03-06T12:27:51.643Z,63.182
2023-03-06T12:28:52.158Z,63.150
2023-03-06T12:29:51.687Z,63.297
2023-03-06T12:30:52.360Z,62.652
2023-03-06T12:31:52.020Z,63.106
2023-03-06T12:32:52.396Z,64.111
2023-03-06T12:33:51.934Z,63.730
2023-03-06T12:34:51.497Z,63.278
2023-03-06T12:35:51.787Z,63.491
2023-03-06T12:36:51.323Z,63.142
2023-03-06T12:37:51.916Z,63.450
2023-03-06T12:38:51.482Z,62.416
2023-03-06T12:39:52.288Z,61.773
2023-03-06T12:40:51.512Z,62.027
2023-03-06T12:41:52.675Z,61.189
2023-03-06T12:43:52.088Z,60.909